Latest Weather Observations for Giles*

IDW60801

Issued at 2:22 pm WST Saturday 13 April 2024 (issued every 10 minutes, with the page automatically refreshed every 10 minutes)

About weather observations | Map of weather stations | Latest weather observations for WA | Other Formats
Station Details ID: 013017 Name: GILES METEOROLOGICAL OFFICE Lat: -25.03 Lon: 128.30 Height: 598.0 m
Data from the previous 72 hours. | See also: Recent months at Giles*

* Giles observations are collected in the South Australia time zone, which includes daylight saving in the summer period. Therefore, Rain since 9am value is with respect to South Australia local time.

Date/Time
WST
Temp
°C
App
Temp
°C
Dew
Point
°C
Rel
Hum
%
Delta-T
°C
Wind Press
QNH
hPa
Press
MSL
hPa
Rain since
9am
mm
Dir  Spd
km/h
Gust
km/h
Spd
kts
Gust
kts
13/02:00pm 28.4 23.8 -0.7 15 13.9 E 13 20 7 11 1018.0 1014.9 0.0
13/01:30pm 28.5 24.5 0.3 16 13.8 E 11 19 6 10 1018.0 1014.9 0.0
13/01:00pm 27.8 23.0 0.5 17 13.3 NNE 15 24 8 13 1018.3 1015.2 0.0
13/12:30pm 27.9 23.5 0.6 17 13.4 NNE 13 24 7 13 1018.7 1015.6 0.0
13/12:00pm 27.1 21.6 0.8 18 12.8 NE 19 28 10 15 1019.4 1016.2 0.0
13/11:30am 27.0 22.0 1.4 19 12.6 NNE 17 28 9 15 1019.8 1016.7 0.0
13/11:00am 26.7 21.7 1.2 19 12.5 NNE 17 24 9 13 1020.2 1017.1 0.0
13/10:30am 25.8 20.4 1.2 20 12.0 NE 19 32 10 17 1020.7 1017.6 0.0
13/10:00am 25.1 19.0 0.6 20 11.7 NNE 22 33 12 18 1021.1 1018.0 0.0
13/09:30am 24.7 17.8 0.3 20 11.6 NNE 26 37 14 20 1021.3 1018.2 0.0
13/09:00am 23.8 16.5 0.2 21 11.1 NE 28 39 15 21 1021.5 1018.4 0.0
13/08:30am 23.8 16.5 0.2 21 11.1 NE 28 43 15 23 1021.6 1018.5 0.0
13/08:00am 22.9 16.4 0.1 22 10.6 ENE 24 41 13 22 1021.5 1018.4 0.0
13/07:30am 22.2 15.3 0.1 23 10.3 ENE 26 41 14 22 1021.3 1018.2 -
13/07:00am 21.3 15.2 0.5 25 9.7 ENE 22 33 12 18 1021.0 1017.8 -
13/06:30am 20.3 14.7 0.2 26 9.2 ENE 19 26 10 14 1020.7 1017.6 -
13/06:00am 19.3 14.1 -0.1 27 8.8 E 17 26 9 14 1020.3 1017.2 -
13/05:30am 18.9 14.1 0.0 28 8.5 E 15 30 8 16 1020.3 1017.2 -
13/05:00am 18.0 13.6 0.2 30 8.0 ENE 13 20 7 11 1020.1 1017.0 -
13/04:30am 17.7 13.2 -0.5 29 8.0 E 13 17 7 9 1019.9 1016.8 -
13/04:00am 18.0 13.1 -0.3 29 8.1 ENE 15 20 8 11 1019.8 1016.7 -
13/03:30am 14.2 10.2 0.5 39 6.0 ESE 11 13 6 7 1019.6 1016.5 -
13/03:00am 14.5 10.5 0.4 38 6.2 S 11 11 6 6 1019.4 1016.2 -
13/02:30am 15.6 12.4 -0.2 34 6.9 SE 6 9 3 5 1019.3 1016.1 -
13/02:00am 17.6 13.1 -0.2 30 7.9 E 13 17 7 9 1019.4 1016.2 -
13/01:30am 17.8 13.0 0.0 30 8.0 E 15 17 8 9 1019.3 1016.1 0.0
13/01:00am 17.9 13.5 0.1 30 8.0 E 13 17 7 9 1019.3 1016.1 -
13/12:30am 18.6 13.4 -0.2 28 8.4 E 17 20 9 11 1019.4 1016.2 -
13/12:00am 16.5 11.8 1.0 35 7.0 E 15 17 8 9 1019.5 1016.4 -
 
Date/Time
WST
Temp
°C
App
Temp
°C
Dew
Point
°C
Rel
Hum
%
Delta-T
°C
Wind Press
QNH
hPa
Press
MSL
hPa
Rain since
9am
mm
Dir  Spd
km/h
Gust
km/h
Spd
kts
Gust
kts
12/11:30pm 16.8 12.5 1.3 35 7.1 E 13 15 7 8 1019.8 1016.7 -
12/11:00pm 19.3 14.5 0.4 28 8.6 E 15 15 8 8 1019.9 1016.8 -
12/10:30pm 20.0 15.2 0.5 27 9.0 ENE 15 17 8 9 1020.0 1016.9 -
12/10:00pm 19.1 15.1 0.7 29 8.4 E 11 13 6 7 1020.1 1017.0 -
12/09:30pm 21.1 16.7 0.3 25 9.6 ENE 13 17 7 9 1020.2 1017.1 -
12/09:00pm 20.9 16.6 1.2 27 9.2 ENE 13 17 7 9 1020.4 1017.3 -
12/08:30pm 21.4 17.1 1.1 26 9.6 ENE 13 17 7 9 1020.4 1017.3 -
12/08:00pm 21.9 17.2 1.0 25 9.8 ENE 15 17 8 9 1020.4 1017.3 -
12/07:30pm 22.5 18.2 0.9 24 10.2 ENE 13 17 7 9 1020.1 1017.0 0.0
12/07:00pm 22.9 18.6 1.3 24 10.3 ENE 13 15 7 8 1019.9 1016.8 -
12/06:30pm 23.3 19.0 1.0 23 10.6 ENE 13 15 7 8 1019.6 1016.5 -
12/06:00pm 23.4 19.5 1.1 23 10.6 E 11 13 6 7 1019.4 1016.2 -
12/05:30pm 24.3 20.7 0.6 21 11.3 ESE 9 11 5 6 1019.1 1015.9 -
12/05:00pm 26.1 20.9 0.0 18 12.5 ESE 17 22 9 12 1018.7 1015.6 -
12/04:30pm 27.1 22.3 0.0 17 13.0 ESE 15 20 8 11 1018.3 1015.2 -
12/04:00pm 27.5 22.6 -0.5 16 13.4 ESE 15 22 8 12 1018.2 1015.1 -
12/03:30pm 27.8 22.2 -0.3 16 13.5 SE 19 26 10 14 1018.2 1015.1 -
12/03:00pm 28.2 23.5 0.9 17 13.4 ESE 15 24 8 13 1018.1 1015.0 -
12/02:30pm 27.8 23.0 0.5 17 13.3 ESE 15 20 8 11 1018.2 1015.1 -
12/02:00pm 27.8 22.8 1.3 18 13.1 ESE 17 24 9 13 1018.4 1015.3 -
12/01:30pm 28.0 22.9 0.7 17 13.4 E 17 28 9 15 1018.6 1015.5 -
12/01:00pm 27.8 23.9 1.3 18 13.1 WNW 11 22 6 12 1018.9 1015.8 -
12/12:30pm 27.3 23.0 0.9 18 12.9 E 13 20 7 11 1019.3 1016.1 -
12/11:00am 26.2 23.1 1.5 20 12.1 N 7 17 4 9 1020.7 1017.6 0.0
12/10:30am 25.1 20.8 1.3 21 11.5 NNE 13 24 7 13 1021.5 1018.4 0.0
12/10:00am 24.9 20.3 1.7 22 11.3 NNE 15 24 8 13 1021.9 1018.8 0.0
12/09:30am 24.3 19.4 1.9 23 10.9 ENE 17 26 9 14 1022.1 1019.0 0.0
12/09:00am 24.2 18.9 1.8 23 10.9 NE 19 28 10 15 1022.1 1019.0 0.0
12/08:30am 22.8 17.3 1.8 25 10.1 ENE 20 30 11 16 1022.2 1019.1 0.0
12/08:00am 21.9 16.4 1.6 26 9.7 ENE 20 30 11 16 1022.2 1019.1 0.0
12/07:30am 20.9 15.4 1.7 28 9.1 ENE 20 30 11 16 1022.1 1019.0 0.0
12/07:00am 20.1 15.2 2.0 30 8.6 E 17 24 9 13 1021.7 1018.6 0.0
12/06:30am 18.3 14.1 1.8 33 7.7 E 13 22 7 12 1021.5 1018.4 0.0
12/06:00am 17.2 13.0 1.6 35 7.2 ENE 13 15 7 8 1021.5 1018.4 0.0
12/05:30am 17.2 13.3 1.2 34 7.3 ENE 11 15 6 8 1021.3 1018.2 0.0
12/05:00am 15.0 11.9 1.5 40 6.1 SW 7 9 4 5 1020.7 1017.6 0.0
12/04:30am 14.4 11.6 2.0 43 5.6 SSW 6 7 3 4 1020.3 1017.2 0.0
12/04:00am 15.7 12.3 1.8 39 6.3 E 9 11 5 6 1020.1 1017.0 0.0
12/03:30am 14.7 11.3 1.9 42 5.8 SSE 9 11 5 6 1020.2 1017.1 0.0
12/03:00am 15.0 12.0 1.9 41 5.9 SE 7 9 4 5 1020.0 1016.9 0.0
12/02:30am 15.4 11.6 1.9 40 6.2 SE 11 13 6 7 1019.9 1016.8 0.0
12/02:00am 16.3 13.3 2.0 38 6.6 E 7 9 4 5 1020.0 1016.9 0.0
12/01:30am 16.9 14.1 2.1 37 6.9 NE 6 7 3 4 1020.1 1017.0 0.0
12/01:00am 17.3 13.9 2.1 36 7.1 E 9 11 5 6 1020.2 1017.1 0.0
12/12:30am 17.6 13.8 2.0 35 7.3 ESE 11 13 6 7 1020.3 1017.2 0.0
12/12:00am 18.0 14.2 1.9 34 7.5 ESE 11 13 6 7 1020.5 1017.4 0.0
 
Date/Time
WST
Temp
°C
App
Temp
°C
Dew
Point
°C
Rel
Hum
%
Delta-T
°C
Wind Press
QNH
hPa
Press
MSL
hPa
Rain since
9am
mm
Dir  Spd
km/h
Gust
km/h
Spd
kts
Gust
kts
11/11:30pm 18.0 14.2 1.9 34 7.5 SE 11 15 6 8 1020.7 1017.6 0.0
11/11:00pm 17.9 13.7 1.4 33 7.6 SE 13 15 7 8 1021.0 1017.8 0.0
11/10:30pm 18.0 13.7 1.1 32 7.7 SE 13 15 7 8 1021.1 1018.0 0.0
11/10:00pm 17.7 13.9 1.7 34 7.4 SE 11 11 6 6 1021.3 1018.2 0.0
11/09:30pm 17.8 14.4 1.7 34 7.5 SE 9 11 5 6 1021.4 1018.3 0.0
11/09:00pm 18.9 15.4 1.0 30 8.2 ESE 9 13 5 7 1021.3 1018.2 0.0
11/08:30pm 20.2 15.4 0.1 26 9.2 E 15 17 8 9 1021.3 1018.2 0.0
11/08:00pm 20.5 16.0 -0.2 25 9.4 ENE 13 15 7 8 1021.3 1018.2 0.0
11/07:30pm 21.2 16.7 -0.1 24 9.8 ENE 13 15 7 8 1021.3 1018.2 0.0
11/07:00pm 21.7 17.3 0.3 24 9.9 ENE 13 15 7 8 1020.9 1017.7 0.0
11/06:30pm 22.2 18.1 0.1 23 10.3 ENE 11 13 6 7 1020.5 1017.4 0.0
11/06:00pm 23.2 19.1 -0.3 21 10.9 E 11 15 6 8 1020.1 1017.0 0.0
11/05:30pm 24.1 19.1 -0.9 19 11.6 ESE 15 20 8 11 1019.8 1016.7 0.0
11/05:00pm 25.1 19.3 -1.6 17 12.3 E 19 28 10 15 1019.7 1016.6 0.0
11/04:30pm 25.2 19.2 -1.6 17 12.3 ESE 20 28 11 15 1019.4 1016.2 0.0
11/04:00pm 25.5 19.2 -1.3 17 12.4 ESE 22 30 12 16 1019.4 1016.2 0.0
11/03:30pm 25.6 19.3 -1.2 17 12.5 ESE 22 35 12 19 1019.5 1016.4 0.0
11/03:00pm 25.6 19.5 -2.1 16 12.7 ESE 20 30 11 16 1019.7 1016.6 0.0
11/02:30pm 25.6 19.3 -1.2 17 12.5 SE 22 33 12 18 1019.5 1016.4 0.0
11/02:00pm 25.9 20.1 -1.8 16 12.8 ESE 19 33 10 18 1019.8 1016.7 0.0
11/01:30pm 26.4 20.2 -0.6 17 12.8 ESE 22 33 12 18 1019.9 1016.8 0.0
11/01:00pm 25.4 19.6 -1.4 17 12.4 ESE 19 28 10 15 1020.2 1017.1 0.0
11/12:30pm 25.0 19.8 -0.2 19 11.9 E 17 41 9 22 1020.5 1017.4 0.0
11/12:00pm 24.5 19.4 0.8 21 11.3 E 17 30 9 16 1020.9 1017.7 0.0
11/11:30am 23.9 18.8 0.9 22 11.0 E 17 26 9 14 1021.4 1018.3 0.0
11/11:00am 23.6 18.3 1.9 24 10.5 E 19 30 10 16 1022.1 1019.0 0.0
11/10:30am 22.4 17.0 1.4 25 10.0 E 19 30 10 16 1022.7 1019.6 0.0
11/10:00am 22.0 15.7 1.6 26 9.7 ENE 24 33 13 18 1023.2 1020.1 0.0
11/09:30am 22.0 15.7 1.6 26 9.8 ENE 24 39 13 21 1023.4 1020.3 0.0
11/09:00am 20.8 14.0 0.6 26 9.3 ENE 26 41 14 22 1023.6 1020.5 0.0
11/08:30am 19.8 13.5 1.3 29 8.6 ENE 24 35 13 19 1023.9 1020.8 0.0
11/08:00am 19.6 12.8 0.6 28 8.7 ENE 26 39 14 21 1023.5 1020.4 0.0
11/07:30am 18.9 13.5 1.0 30 8.2 E 19 26 10 14 1023.6 1020.5 0.0
11/07:00am 18.4 13.9 1.9 33 7.7 E 15 20 8 11 1023.4 1020.3 0.0
11/06:30am 15.7 14.2 3.2 43 5.9 CALM 0 0 0 0 1023.2 1020.1 0.0
11/06:00am 14.4 11.6 2.9 46 5.3 E 7 9 4 5 1022.7 1019.6 0.0
11/05:30am 14.7 13.1 2.3 43 5.7 CALM 0 0 0 0 1022.4 1019.3 0.0
11/05:00am 14.7 13.2 2.9 45 5.5 CALM 0 0 0 0 1022.0 1018.9 0.0
11/04:30am 14.8 13.3 3.0 45 5.5 CALM 0 0 0 0 1021.8 1018.7 0.0
11/04:00am 14.9 10.8 2.1 42 5.8 E 13 15 7 8 1021.5 1018.4 0.0
11/03:30am 14.3 10.2 2.2 44 5.5 ESE 13 13 7 7 1021.3 1018.2 0.0
11/03:00am 14.9 10.8 2.1 42 5.8 E 13 15 7 8 1021.2 1018.1 0.0
11/02:30am 15.7 12.0 2.2 40 6.2 E 11 13 6 7 1021.4 1018.3 0.0
11/02:00am 16.2 14.6 2.2 39 6.5 CALM 0 6 0 3 1021.6 1018.5 0.0
11/01:30am 16.1 12.9 2.9 41 6.2 ESE 9 13 5 7 1021.1 1018.0 0.0
11/01:00am 16.1 14.6 3.2 42 6.1 CALM 0 0 0 0 1021.6 1018.5 0.0
11/12:30am 16.3 14.1 3.4 42 6.1 ESE 4 7 2 4 1021.7 1018.6 0.0
11/12:00am 16.6 13.8 3.0 40 6.4 E 7 9 4 5 1021.6 1018.5 0.0
 
Date/Time
WST
Temp
°C
App
Temp
°C
Dew
Point
°C
Rel
Hum
%
Delta-T
°C
Wind Press
QNH
hPa
Press
MSL
hPa
Rain since
9am
mm
Dir  Spd
km/h
Gust
km/h
Spd
kts
Gust
kts
10/11:30pm 16.5 13.3 2.9 40 6.4 ENE 9 11 5 6 1021.7 1018.6 0.0
10/11:00pm 16.1 12.5 2.9 41 6.2 E 11 13 6 7 1021.7 1018.6 0.0
10/10:30pm 15.9 13.0 2.7 41 6.1 ESE 7 7 4 4 1022.2 1019.1 0.0
10/10:00pm 16.5 13.5 2.2 38 6.6 ENE 7 9 4 5 1022.1 1019.0 0.0
10/09:30pm 16.9 13.1 1.8 36 7.0 ESE 11 13 6 7 1022.0 1018.9 0.0
10/09:00pm 17.8 13.5 1.3 33 7.6 E 13 13 7 7 1022.4 1019.3 0.0
10/08:30pm 18.4 14.9 1.4 32 7.9 ENE 9 13 5 7 1022.7 1019.6 0.0
10/08:00pm 19.0 15.5 1.1 30 8.3 E 9 11 5 6 1022.1 1019.0 0.0
10/07:30pm 20.4 15.7 0.8 27 9.1 ESE 15 19 8 10 1021.8 1018.7 0.0
10/07:00pm 20.6 16.2 0.4 26 9.3 SE 13 17 7 9 1021.6 1018.5 0.0
10/06:30pm 20.6 16.2 0.4 26 9.3 SE 13 17 7 9 1021.1 1018.0 0.0
10/06:00pm 21.8 17.8 0.4 24 10.0 ESE 11 15 6 8 1021.0 1017.8 0.0
10/05:30pm 23.3 18.9 0.4 22 10.8 ESE 13 19 7 10 1020.5 1017.4 0.0
10/05:00pm 24.7 19.2 0.3 20 11.6 ESE 19 26 10 14 1020.3 1017.2 0.0
10/04:30pm 25.7 20.0 0.4 19 12.1 ESE 20 32 11 17 1020.1 1017.0 0.0
10/04:00pm 25.8 19.1 1.2 20 12.0 SE 26 35 14 19 1019.9 1016.8 0.0
10/03:30pm 26.2 20.2 0.8 19 12.3 SE 22 35 12 19 1019.8 1016.7 0.0
10/03:00pm 26.3 20.9 2.3 21 11.9 SE 20 32 11 17 1020.0 1016.9 0.0
10/02:30pm 26.5 20.8 3.1 22 11.9 SE 22 33 12 18 1020.2 1017.1 0.0
10/02:00pm 26.6 22.0 3.8 23 11.7 SSE 17 28 9 15 1020.4 1017.3 0.0
10/01:30pm 26.0 20.4 3.3 23 11.5 SE 22 37 12 20 1020.9 1017.7 0.0
10/01:00pm 25.5 20.1 4.6 26 10.8 SE 22 33 12 18 1021.2 1018.1 0.0

Other formats

Comma delimited format used in spreadsheet applications
http://www.bom.gov.au/fwo/IDW60801/IDW60801.94461.axf

JavaScript Object Notation format (JSON) in row-major order
http://www.bom.gov.au/fwo/IDW60801/IDW60801.94461.json

Data quality

Most of these data are generated automatically and are frequently updated. Quality checks on data are not normally performed. It is possible for incorrect values to appear. Refer to information at About Latest Weather Observations and please check the disclaimer before using these data.